sensor_id;sensor_type;location;lat;lon;timestamp;pressure;altitude;pressure_sealevel;temperature;humidity
37860;BME280;23698;52.014;5.190;2023-06-10T05:02:37;101507.22;;;21.65;100.00
37860;BME280;23698;52.014;5.190;2023-06-10T05:05:23;101510.16;;;22.71;100.00
37860;BME280;23698;52.014;5.190;2023-06-10T05:08:10;101509.63;;;22.13;100.00
37860;BME280;23698;52.014;5.190;2023-06-10T05:10:57;101513.50;;;22.51;100.00
37860;BME280;23698;52.014;5.190;2023-06-10T05:13:44;101508.06;;;22.56;100.00
37860;BME280;23698;52.014;5.190;2023-06-10T07:57:11;101551.06;;;30.11;85.79
37860;BME280;23698;52.014;5.190;2023-06-10T07:59:57;101547.75;;;30.23;87.49
37860;BME280;23698;52.014;5.190;2023-06-10T08:02:49;101553.34;;;31.34;79.77
37860;BME280;23698;52.014;5.190;2023-06-10T08:05:39;101547.50;;;30.94;84.47
37860;BME280;23698;52.014;5.190;2023-06-10T08:08:37;101553.63;;;30.96;81.58
37860;BME280;23698;52.014;5.190;2023-06-10T08:11:27;101541.75;;;29.83;93.38
37860;BME280;23698;52.014;5.190;2023-06-10T08:14:18;101542.41;;;30.96;81.65
37860;BME280;23698;52.014;5.190;2023-06-10T08:17:07;101546.16;;;30.63;82.27
37860;BME280;23698;52.014;5.190;2023-06-10T08:19:54;101542.94;;;31.34;84.57
37860;BME280;23698;52.014;5.190;2023-06-10T08:23:10;101542.50;;;30.63;77.81
37860;BME280;23698;52.014;5.190;2023-06-10T08:26:22;101534.22;;;31.36;74.15
37860;BME280;23698;52.014;5.190;2023-06-10T08:29:23;101537.41;;;31.57;72.18
37860;BME280;23698;52.014;5.190;2023-06-10T08:32:10;101538.50;;;32.01;72.95
37860;BME280;23698;52.014;5.190;2023-06-10T08:48:48;101532.91;;;32.64;68.79
37860;BME280;23698;52.014;5.190;2023-06-10T08:51:40;101541.22;;;32.86;70.63
37860;BME280;23698;52.014;5.190;2023-06-10T08:54:33;101539.16;;;31.98;69.29
37860;BME280;23698;52.014;5.190;2023-06-10T08:57:24;101539.66;;;33.29;63.87
37860;BME280;23698;52.014;5.190;2023-06-10T09:00:13;101543.06;;;33.00;63.52
37860;BME280;23698;52.014;5.190;2023-06-10T09:03:00;101539.59;;;34.08;60.99
37860;BME280;23698;52.014;5.190;2023-06-10T09:05:51;101530.06;;;33.39;60.72
37860;BME280;23698;52.014;5.190;2023-06-10T09:08:38;101543.25;;;31.69;66.74
37860;BME280;23698;52.014;5.190;2023-06-10T09:11:28;101536.38;;;32.69;62.18
37860;BME280;23698;52.014;5.190;2023-06-10T09:14:15;101546.41;;;31.99;74.18
37860;BME280;23698;52.014;5.190;2023-06-10T09:17:02;101539.56;;;32.05;69.37
37860;BME280;23698;52.014;5.190;2023-06-10T09:19:50;101540.03;;;32.30;66.47
37860;BME280;23698;52.014;5.190;2023-06-10T09:22:41;101543.06;;;32.51;65.78
37860;BME280;23698;52.014;5.190;2023-06-10T09:25:35;101551.06;;;32.26;65.32
37860;BME280;23698;52.014;5.190;2023-06-10T09:28:22;101539.22;;;32.87;66.00
37860;BME280;23698;52.014;5.190;2023-06-10T09:31:09;101539.34;;;32.24;66.00
37860;BME280;23698;52.014;5.190;2023-06-10T09:34:04;101544.78;;;33.44;63.76
37860;BME280;23698;52.014;5.190;2023-06-10T09:36:51;101538.75;;;34.54;59.01
37860;BME280;23698;52.014;5.190;2023-06-10T09:39:39;101542.78;;;33.62;55.79
37860;BME280;23698;52.014;5.190;2023-06-10T09:42:26;101539.84;;;33.67;57.55
37860;BME280;23698;52.014;5.190;2023-06-10T09:45:13;101536.03;;;34.37;56.18
37860;BME280;23698;52.014;5.190;2023-06-10T09:48:00;101549.13;;;34.33;58.12
37860;BME280;23698;52.014;5.190;2023-06-10T09:50:47;101540.81;;;33.80;53.41
37860;BME280;23698;52.014;5.190;2023-06-10T09:53:34;101540.81;;;33.80;53.42
37860;BME280;23698;52.014;5.190;2023-06-10T09:56:32;101538.50;;;33.21;56.17
37860;BME280;23698;52.014;5.190;2023-06-10T09:59:28;101541.25;;;33.12;57.82
37860;BME280;23698;52.014;5.190;2023-06-10T10:02:15;101529.25;;;34.38;52.40
37860;BME280;23698;52.014;5.190;2023-06-10T10:05:02;101529.56;;;33.63;53.26
37860;BME280;23698;52.014;5.190;2023-06-10T10:07:51;101528.56;;;33.85;55.94
37860;BME280;23698;52.014;5.190;2023-06-10T10:10:42;101528.59;;;33.67;54.21
37860;BME280;23698;52.014;5.190;2023-06-10T10:13:32;101533.41;;;32.34;56.22
37860;BME280;23698;52.014;5.190;2023-06-10T11:05:39;101497.13;;;33.83;44.95
